createdAt,value
2022-09-10T00:00:46.993Z,12.77
2022-09-10T00:03:50.106Z,12.74
2022-09-10T00:06:51.652Z,12.73
2022-09-10T00:09:53.231Z,12.72
2022-09-10T00:12:55.786Z,12.72
2022-09-10T00:15:58.068Z,12.71
2022-09-10T00:19:01.426Z,12.71
2022-09-10T00:22:02.994Z,12.73
2022-09-10T00:25:08.347Z,12.75
2022-09-10T00:28:10.185Z,12.79
2022-09-10T00:31:13.302Z,12.81
2022-09-10T00:34:15.182Z,12.82
2022-09-10T00:37:16.693Z,12.82
2022-09-10T00:40:18.342Z,12.82
2022-09-10T00:43:22.178Z,12.81
2022-09-10T00:46:33.780Z,12.79
2022-09-10T00:49:44.222Z,12.76
2022-09-10T00:52:47.523Z,12.75
2022-09-10T00:55:53.924Z,12.74
2022-09-10T00:58:56.225Z,12.72
2022-09-10T01:01:59.707Z,12.70
2022-09-10T01:05:03.332Z,12.68
2022-09-10T01:08:05.156Z,12.67
2022-09-10T01:11:27.485Z,12.70
2022-09-10T01:14:56.284Z,12.71
2022-09-10T01:18:30.288Z,12.74
2022-09-10T01:22:05.232Z,12.75
2022-09-10T01:25:40.469Z,12.78
2022-09-10T01:29:10.871Z,12.80
2022-09-10T01:32:16.187Z,12.83
2022-09-10T01:35:22.797Z,12.87
2022-09-10T01:38:28.930Z,12.90
2022-09-10T01:41:31.101Z,12.90
2022-09-10T01:44:50.547Z,12.90
2022-09-10T01:48:00.956Z,12.87
2022-09-10T01:51:34.825Z,12.87
2022-09-10T01:55:02.447Z,12.91
2022-09-10T01:58:30.468Z,12.92
2022-09-10T02:01:47.682Z,12.93
2022-09-10T02:04:51.579Z,12.93
2022-09-10T02:07:58.615Z,12.96
2022-09-10T02:11:09.245Z,12.97
2022-09-10T02:14:14.181Z,12.98
2022-09-10T02:17:16.355Z,13.00
2022-09-10T02:20:19.824Z,13.01
2022-09-10T02:23:37.073Z,13.02
2022-09-10T02:26:41.434Z,13.05
2022-09-10T02:29:43.313Z,13.06
2022-09-10T02:32:45.088Z,13.08
2022-09-10T02:35:47.853Z,13.08
2022-09-10T02:38:49.393Z,13.09
2022-09-10T02:41:51.282Z,13.11
2022-09-10T02:44:53.573Z,13.11
2022-09-10T02:47:55.073Z,13.13
2022-09-10T02:50:57.262Z,13.13
2022-09-10T02:53:58.839Z,13.13
2022-09-10T02:57:01.025Z,13.13
2022-09-10T03:00:03.177Z,13.13
2022-09-10T03:03:04.707Z,13.13
2022-09-10T03:06:07.176Z,13.16
2022-09-10T03:09:09.576Z,13.17
2022-09-10T03:12:11.117Z,13.17
2022-09-10T03:15:12.859Z,13.16
2022-09-10T03:18:15.710Z,13.17
2022-09-10T03:21:20.211Z,13.15
2022-09-10T03:24:22.479Z,13.13
2022-09-10T03:27:25.382Z,13.13
2022-09-10T03:30:27.077Z,13.11
2022-09-10T03:33:28.725Z,13.10
2022-09-10T03:36:31.434Z,13.09
2022-09-10T03:39:33.071Z,13.07
2022-09-10T03:42:34.616Z,13.05
2022-09-10T03:45:36.280Z,13.02
2022-09-10T03:48:39.586Z,13.00
2022-09-10T03:51:41.425Z,13.01
2022-09-10T03:54:43.189Z,12.99
2022-09-10T03:57:45.732Z,12.96
2022-09-10T04:00:47.350Z,12.94
2022-09-10T04:03:48.977Z,12.91
2022-09-10T04:06:53.108Z,12.88
2022-09-10T04:09:54.633Z,12.85
2022-09-10T04:12:56.228Z,12.82
2022-09-10T04:16:00.504Z,12.79
2022-09-10T04:19:02.089Z,12.77
2022-09-10T04:22:03.748Z,12.75
2022-09-10T04:25:05.589Z,12.75
2022-09-10T04:28:07.233Z,12.72
2022-09-10T04:31:09.193Z,12.71
2022-09-10T04:34:11.461Z,12.70
2022-09-10T04:37:17.357Z,12.71
2022-09-10T04:40:20.765Z,12.70
2022-09-10T04:43:22.469Z,12.71
2022-09-10T04:46:24.459Z,12.70
2022-09-10T04:49:25.977Z,12.70
2022-09-10T04:52:27.944Z,12.69
2022-09-10T04:55:31.982Z,12.69
2022-09-10T04:58:38.050Z,12.68
2022-09-10T05:01:40.320Z,12.67
2022-09-10T05:04:42.037Z,12.66
2022-09-10T05:07:43.592Z,12.66
2022-09-10T05:10:45.416Z,12.66
2022-09-10T05:13:47.168Z,12.65
2022-09-10T05:16:49.162Z,12.66
2022-09-10T05:19:50.795Z,12.66
2022-09-10T05:22:52.308Z,12.67
2022-09-10T05:25:54.076Z,12.71
2022-09-10T05:28:55.725Z,12.82
2022-09-10T05:31:57.429Z,12.93
2022-09-10T05:34:58.985Z,12.99
2022-09-10T05:38:01.305Z,13.05
2022-09-10T05:41:03.016Z,13.11
2022-09-10T05:44:05.304Z,13.16
2022-09-10T05:47:07.821Z,13.20
2022-09-10T05:50:09.662Z,13.26
2022-09-10T05:53:11.531Z,13.30
2022-09-10T05:56:13.213Z,13.33
2022-09-10T05:59:14.844Z,13.35
2022-09-10T06:02:21.787Z,13.36
2022-09-10T06:05:25.428Z,13.36
2022-09-10T06:08:27.131Z,13.36
2022-09-10T06:11:28.840Z,13.40
2022-09-10T06:14:31.089Z,13.38
2022-09-10T06:17:33.912Z,13.35
2022-09-10T06:20:35.590Z,13.33
2022-09-10T06:23:37.255Z,13.33
2022-09-10T06:26:38.911Z,13.32
2022-09-10T06:29:40.511Z,13.33
2022-09-10T06:32:42.208Z,13.33
2022-09-10T06:35:43.703Z,13.34
2022-09-10T06:38:45.581Z,13.37
2022-09-10T06:41:49.709Z,13.41
2022-09-10T06:44:52.499Z,13.45
2022-09-10T06:51:16.609Z,13.56
2022-09-10T06:54:18.918Z,13.61
2022-09-10T06:57:20.659Z,13.67
2022-09-10T07:00:22.253Z,13.73
2022-09-10T07:03:24.119Z,13.80
2022-09-10T07:06:27.584Z,13.85
2022-09-10T07:09:29.085Z,13.89
2022-09-10T07:12:30.917Z,13.93
2022-09-10T07:15:33.321Z,13.96
2022-09-10T07:18:35.570Z,13.97
2022-09-10T07:21:38.002Z,14.01
2022-09-10T07:24:39.552Z,14.04
2022-09-10T07:27:41.502Z,14.07
2022-09-10T07:30:44.188Z,14.11
2022-09-10T07:33:45.958Z,14.13
2022-09-10T07:36:47.572Z,14.17
2022-09-10T07:39:49.560Z,14.22
2022-09-10T07:42:52.535Z,14.38
2022-09-10T07:45:54.252Z,14.62
2022-09-10T07:48:57.987Z,14.72
2022-09-10T07:52:00.217Z,14.76
2022-09-10T07:55:01.920Z,14.80
2022-09-10T07:58:03.820Z,14.82
2022-09-10T08:01:12.601Z,14.85
2022-09-10T08:04:14.261Z,14.86
2022-09-10T08:07:17.304Z,14.88
2022-09-10T08:10:19.055Z,14.90
2022-09-10T08:13:20.833Z,14.93
2022-09-10T08:16:24.309Z,14.94
2022-09-10T08:19:26.089Z,14.96
2022-09-10T08:22:28.129Z,14.97
2022-09-10T08:25:31.127Z,14.99
2022-09-10T08:28:33.137Z,15.01
2022-09-10T08:31:34.932Z,15.04
2022-09-10T08:34:36.474Z,15.07
2022-09-10T08:37:38.093Z,15.14
2022-09-10T08:40:42.693Z,15.19
2022-09-10T08:43:52.566Z,15.24
2022-09-10T08:46:59.972Z,15.27
2022-09-10T08:50:11.672Z,15.31
2022-09-10T08:53:48.351Z,15.35
2022-09-10T08:56:50.764Z,15.45
2022-09-10T08:59:56.788Z,15.54
2022-09-10T09:03:09.887Z,15.59
2022-09-10T09:06:21.381Z,15.69
2022-09-10T09:09:22.886Z,15.77
2022-09-10T09:12:53.776Z,15.84
2022-09-10T09:16:15.236Z,15.89
2022-09-10T09:19:46.107Z,15.94
2022-09-10T09:23:19.700Z,16.00
2022-09-10T09:26:29.444Z,16.04
2022-09-10T09:29:56.034Z,16.06
2022-09-10T09:33:03.898Z,16.17
2022-09-10T09:36:06.903Z,16.25
2022-09-10T09:39:21.999Z,16.32
2022-09-10T09:42:37.877Z,16.37
2022-09-10T09:45:45.573Z,16.38
2022-09-10T09:48:48.776Z,16.44
2022-09-10T09:51:51.919Z,16.46
2022-09-10T09:55:13.842Z,16.51
2022-09-10T09:58:22.116Z,16.55
2022-09-10T10:01:26.046Z,16.60
2022-09-10T10:04:33.857Z,16.65
2022-09-10T10:07:36.405Z,16.70
2022-09-10T10:10:37.969Z,16.78
2022-09-10T10:13:42.642Z,16.85
2022-09-10T10:16:45.839Z,16.90
2022-09-10T10:19:58.995Z,16.97
2022-09-10T10:23:31.031Z,16.99
2022-09-10T10:26:35.358Z,17.00
2022-09-10T10:29:38.633Z,17.05
2022-09-10T10:32:46.168Z,17.16
2022-09-10T10:36:04.122Z,17.32
2022-09-10T10:39:05.693Z,17.47
2022-09-10T10:42:21.149Z,17.58
2022-09-10T10:45:58.411Z,17.79
2022-09-10T10:49:20.038Z,17.94
2022-09-10T10:52:27.655Z,18.05
2022-09-10T10:55:40.887Z,18.14
2022-09-10T10:58:54.284Z,18.23
2022-09-10T11:02:20.210Z,18.32
2022-09-10T11:05:21.779Z,18.41
2022-09-10T11:08:32.408Z,18.44
2022-09-10T11:11:52.529Z,18.52
2022-09-10T11:15:03.053Z,18.58
2022-09-10T11:18:04.651Z,18.63
2022-09-10T11:21:06.852Z,18.65
2022-09-10T11:24:17.279Z,18.65
2022-09-10T11:27:24.337Z,18.73
2022-09-10T11:30:25.898Z,18.88
2022-09-10T11:33:44.177Z,19.13
2022-09-10T11:36:56.157Z,19.36
2022-09-10T11:40:02.586Z,19.44
2022-09-10T11:43:11.129Z,19.45
2022-09-10T11:46:21.465Z,19.41
2022-09-10T11:49:35.066Z,19.34
2022-09-10T11:52:37.442Z,19.25
2022-09-10T11:56:06.914Z,19.15
2022-09-10T11:59:36.732Z,19.08
2022-09-10T12:03:04.704Z,19.01
2022-09-10T12:06:23.958Z,18.90
2022-09-10T12:09:39.159Z,18.78
2022-09-10T12:12:43.213Z,18.60
2022-09-10T12:15:58.295Z,18.37
2022-09-10T12:19:01.583Z,18.18
2022-09-10T12:22:16.542Z,18.02
2022-09-10T12:25:24.079Z,17.89
2022-09-10T12:28:52.081Z,17.74
2022-09-10T12:32:08.703Z,17.65
2022-09-10T12:35:32.796Z,17.56
2022-09-10T12:38:52.705Z,17.42
2022-09-10T12:41:58.441Z,17.33
2022-09-10T12:45:00.535Z,17.32
2022-09-10T12:48:12.209Z,17.32
2022-09-10T12:51:41.347Z,17.29
2022-09-10T12:55:29.157Z,17.26
2022-09-10T12:58:42.967Z,17.26
2022-09-10T13:01:47.980Z,17.28
2022-09-10T13:05:00.884Z,17.37
2022-09-10T13:08:16.497Z,17.41
2022-09-10T13:11:22.380Z,17.42
2022-09-10T13:14:30.756Z,17.41
2022-09-10T13:17:47.431Z,17.38
2022-09-10T13:20:49.139Z,17.36
2022-09-10T13:23:55.079Z,17.38
2022-09-10T13:27:22.702Z,17.38
2022-09-10T13:30:25.447Z,17.37
2022-09-10T13:33:30.448Z,17.36
2022-09-10T13:36:53.641Z,17.34
2022-09-10T13:40:08.086Z,17.32
2022-09-10T13:43:21.586Z,17.31
2022-09-10T13:46:55.273Z,17.31
2022-09-10T13:50:05.853Z,17.27
2022-09-10T13:53:12.637Z,17.23
2022-09-10T13:56:27.696Z,17.22
2022-09-10T13:59:31.940Z,17.22
2022-09-10T14:02:47.499Z,17.22
2022-09-10T14:05:52.967Z,17.21
2022-09-10T14:09:02.472Z,17.20
2022-09-10T14:12:08.443Z,17.21
2022-09-10T14:15:17.110Z,17.23
2022-09-10T14:18:20.239Z,17.23
2022-09-10T14:21:27.687Z,17.24
2022-09-10T14:24:52.001Z,17.24
2022-09-10T14:27:55.461Z,17.23
2022-09-10T14:31:20.876Z,17.22
2022-09-10T14:34:32.275Z,17.21
2022-09-10T14:37:38.108Z,17.21
2022-09-10T14:40:39.973Z,17.21
2022-09-10T14:43:41.804Z,17.21
2022-09-10T14:46:57.318Z,17.27
2022-09-10T14:50:37.728Z,17.28
2022-09-10T14:53:40.853Z,17.30
2022-09-10T14:56:44.717Z,17.31
2022-09-10T14:59:46.596Z,17.33
2022-09-10T15:02:50.668Z,17.34
2022-09-10T15:05:52.295Z,17.35
2022-09-10T15:08:56.080Z,17.35
2022-09-10T15:12:05.610Z,17.35
2022-09-10T15:15:17.288Z,17.35
2022-09-10T15:18:19.386Z,17.37
2022-09-10T15:21:21.205Z,17.38
2022-09-10T15:24:23.436Z,17.39
2022-09-10T15:27:25.173Z,17.39
2022-09-10T15:30:26.813Z,17.33
2022-09-10T15:33:28.620Z,17.28
2022-09-10T15:36:30.387Z,17.26
2022-09-10T15:39:32.422Z,17.24
2022-09-10T15:42:35.101Z,17.19
2022-09-10T15:45:37.485Z,17.17
2022-09-10T15:48:39.793Z,17.14
2022-09-10T15:51:41.700Z,17.14
2022-09-10T15:54:43.916Z,17.13
2022-09-10T15:57:48.222Z,17.13
2022-09-10T16:00:49.963Z,17.15
2022-09-10T16:03:55.532Z,17.17
2022-09-10T16:06:57.163Z,17.15
2022-09-10T16:09:58.902Z,17.12
2022-09-10T16:13:00.680Z,17.12
2022-09-10T16:16:05.220Z,17.11
2022-09-10T16:19:07.186Z,17.05
2022-09-10T16:22:08.778Z,17.03
2022-09-10T16:25:12.077Z,17.02
2022-09-10T16:28:13.664Z,17.00
2022-09-10T16:31:17.568Z,16.98
2022-09-10T16:34:20.717Z,16.95
2022-09-10T16:37:23.412Z,16.91
2022-09-10T16:40:25.076Z,16.88
2022-09-10T16:43:26.701Z,16.86
2022-09-10T16:46:28.771Z,16.84
2022-09-10T16:49:30.520Z,16.83
2022-09-10T16:52:33.258Z,16.81
2022-09-10T16:55:34.865Z,16.78
2022-09-10T17:01:38.709Z,16.73
2022-09-10T17:04:40.572Z,16.70
2022-09-10T17:07:42.544Z,16.68
2022-09-10T17:10:44.364Z,16.67
2022-09-10T17:13:46.556Z,16.63
2022-09-10T17:16:48.725Z,16.61
2022-09-10T17:19:50.482Z,16.59
2022-09-10T17:22:52.148Z,16.57
2022-09-10T17:25:53.819Z,16.54
2022-09-10T17:28:57.295Z,16.51
2022-09-10T17:31:59.168Z,16.49
2022-09-10T17:35:00.794Z,16.45
2022-09-10T17:38:02.401Z,16.41
2022-09-10T17:41:04.520Z,16.39
2022-09-10T17:44:06.823Z,16.36
2022-09-10T17:47:09.681Z,16.32
2022-09-10T17:50:11.388Z,16.29
2022-09-10T17:53:13.411Z,16.25
2022-09-10T17:56:17.204Z,16.21
2022-09-10T17:59:18.968Z,16.19
2022-09-10T18:02:20.590Z,16.18
2022-09-10T18:05:22.435Z,16.17
2022-09-10T18:08:24.012Z,16.15
2022-09-10T18:11:28.374Z,16.34
2022-09-10T18:14:31.162Z,16.28
2022-09-10T18:17:33.319Z,16.25
2022-09-10T18:20:35.176Z,16.22
2022-09-10T18:23:36.871Z,16.18
2022-09-10T18:26:43.559Z,16.16
2022-09-10T18:29:45.312Z,16.13
2022-09-10T18:32:47.878Z,16.11
2022-09-10T18:35:50.192Z,16.12
2022-09-10T18:38:52.385Z,16.11
2022-09-10T18:41:54.946Z,16.12
2022-09-10T18:44:56.517Z,16.11
2022-09-10T18:47:58.057Z,16.10
2022-09-10T18:51:10.781Z,16.09
2022-09-10T18:54:14.472Z,16.06
2022-09-10T18:57:16.151Z,16.04
2022-09-10T19:00:17.806Z,16.05
2022-09-10T19:03:19.618Z,16.17
2022-09-10T19:06:23.847Z,16.20
2022-09-10T19:09:27.803Z,16.19
2022-09-10T19:12:29.342Z,16.15
2022-09-10T19:15:31.066Z,16.13
2022-09-10T19:18:32.829Z,16.16
2022-09-10T19:21:38.437Z,16.17
2022-09-10T19:24:56.180Z,16.17
2022-09-10T19:27:58.012Z,16.14
2022-09-10T19:31:03.444Z,16.16
2022-09-10T19:34:06.737Z,16.12
2022-09-10T19:37:08.387Z,16.10
2022-09-10T19:40:11.998Z,16.08
2022-09-10T19:43:13.697Z,16.05
2022-09-10T19:46:16.708Z,16.04
2022-09-10T19:49:18.576Z,16.02
2022-09-10T19:52:21.587Z,15.98
2022-09-10T19:55:23.990Z,15.96
2022-09-10T19:58:25.579Z,15.95
2022-09-10T20:01:33.458Z,15.91
2022-09-10T20:04:35.582Z,15.87
2022-09-10T20:07:37.196Z,15.85
2022-09-10T20:10:38.827Z,15.83
2022-09-10T20:13:40.492Z,15.78
2022-09-10T20:16:45.103Z,15.77
2022-09-10T20:19:47.186Z,15.76
2022-09-10T20:22:48.949Z,15.72
2022-09-10T20:25:50.720Z,15.68
2022-09-10T20:29:07.524Z,15.64
2022-09-10T20:32:09.252Z,15.61
2022-09-10T20:35:11.041Z,15.59
2022-09-10T20:38:12.823Z,15.57
2022-09-10T20:41:15.956Z,15.54
2022-09-10T20:44:18.168Z,15.53
2022-09-10T20:47:19.962Z,15.49
2022-09-10T20:50:21.529Z,15.48
2022-09-10T20:53:23.500Z,15.46
2022-09-10T20:56:25.477Z,15.44
2022-09-10T20:59:27.961Z,15.41
2022-09-10T21:02:29.805Z,15.40
2022-09-10T21:05:31.492Z,15.37
2022-09-10T21:08:33.135Z,15.34
2022-09-10T21:11:36.228Z,15.31
2022-09-10T21:14:37.825Z,15.28
2022-09-10T21:17:40.125Z,15.26
2022-09-10T21:20:41.701Z,15.23
2022-09-10T21:23:48.378Z,15.20
2022-09-10T21:26:50.289Z,15.18
2022-09-10T21:29:51.906Z,15.14
2022-09-10T21:32:53.513Z,15.11
2022-09-10T21:36:03.372Z,15.07
2022-09-10T21:39:13.096Z,15.03
2022-09-10T21:42:15.197Z,15.01
2022-09-10T21:45:17.832Z,14.97
2022-09-10T21:48:20.661Z,14.93
2022-09-10T21:51:23.078Z,14.88
2022-09-10T21:54:25.484Z,14.85
2022-09-10T21:57:27.485Z,14.82
2022-09-10T22:00:29.191Z,14.79
2022-09-10T22:03:32.501Z,14.77
2022-09-10T22:06:35.351Z,14.76
2022-09-10T22:09:36.893Z,14.74
2022-09-10T22:12:38.580Z,14.73
2022-09-10T22:15:42.061Z,14.75
2022-09-10T22:18:43.638Z,14.72
2022-09-10T22:21:46.364Z,14.68
2022-09-10T22:24:48.083Z,14.64
2022-09-10T22:27:49.695Z,14.59
2022-09-10T22:30:51.547Z,14.52
2022-09-10T22:33:56.465Z,14.42
2022-09-10T22:36:57.999Z,14.32
2022-09-10T22:40:00.459Z,14.22
2022-09-10T22:43:02.178Z,14.14
2022-09-10T22:46:06.962Z,14.05
2022-09-10T22:49:10.032Z,13.95
2022-09-10T22:52:11.909Z,13.86
2022-09-10T22:55:13.927Z,13.78
2022-09-10T22:58:15.428Z,13.71
2022-09-10T23:01:19.046Z,13.65
2022-09-10T23:04:20.661Z,13.59
2022-09-10T23:07:22.245Z,13.55
2022-09-10T23:10:24.516Z,13.47
2022-09-10T23:13:26.338Z,13.42
2022-09-10T23:16:36.548Z,13.38
2022-09-10T23:19:38.083Z,13.33
2022-09-10T23:22:39.584Z,13.29
2022-09-10T23:25:41.813Z,13.26
2022-09-10T23:28:44.802Z,13.23
2022-09-10T23:31:47.221Z,13.18
2022-09-10T23:34:50.496Z,13.13
2022-09-10T23:37:52.205Z,13.10
2022-09-10T23:40:53.828Z,13.06
2022-09-10T23:43:55.867Z,13.03
2022-09-10T23:46:57.580Z,13.01
2022-09-10T23:49:59.183Z,12.98
2022-09-10T23:53:00.892Z,12.96
2022-09-10T23:56:02.883Z,12.93
2022-09-10T23:59:04.807Z,12.92
